sensor_id;sensor_type;location;lat;lon;timestamp;P1;durP1;ratioP1;P2;durP2;ratioP2
57249;SDS011;43102;52.014;-0.680;2023-06-22T00:00:00;6.70;;;5.30;;
57249;SDS011;43102;52.014;-0.680;2023-06-22T00:01:00;6.70;;;5.30;;
57249;SDS011;43102;52.014;-0.680;2023-06-22T00:02:00;6.70;;;5.30;;
57249;SDS011;43102;52.014;-0.680;2023-06-22T00:03:00;6.70;;;5.30;;
57249;SDS011;43102;52.014;-0.680;2023-06-22T00:04:00;6.70;;;5.30;;
57249;SDS011;43102;52.014;-0.680;2023-06-22T00:05:00;6.70;;;5.30;;
57249;SDS011;43102;52.014;-0.680;2023-06-22T00:06:00;6.70;;;5.30;;
57249;SDS011;43102;52.014;-0.680;2023-06-22T00:07:00;6.70;;;5.30;;
57249;SDS011;43102;52.014;-0.680;2023-06-22T00:08:04;6.70;;;5.30;;
57249;SDS011;43102;52.014;-0.680;2023-06-22T00:09:00;6.70;;;5.30;;
57249;SDS011;43102;52.014;-0.680;2023-06-22T00:10:00;6.70;;;5.30;;
57249;SDS011;43102;52.014;-0.680;2023-06-22T00:11:00;6.70;;;5.30;;
57249;SDS011;43102;52.014;-0.680;2023-06-22T00:12:01;6.70;;;5.30;;
57249;SDS011;43102;52.014;-0.680;2023-06-22T00:13:00;6.70;;;5.30;;
57249;SDS011;43102;52.014;-0.680;2023-06-22T00:14:00;6.70;;;5.30;;
57249;SDS011;43102;52.014;-0.680;2023-06-22T00:15:00;6.70;;;5.30;;
57249;SDS011;43102;52.014;-0.680;2023-06-22T00:16:00;6.70;;;5.30;;
57249;SDS011;43102;52.014;-0.680;2023-06-22T00:17:00;6.70;;;5.30;;
57249;SDS011;43102;52.014;-0.680;2023-06-22T00:18:00;6.70;;;5.30;;
57249;SDS011;43102;52.014;-0.680;2023-06-22T00:19:02;6.20;;;5.50;;
57249;SDS011;43102;52.014;-0.680;2023-06-22T00:20:00;6.20;;;5.50;;
57249;SDS011;43102;52.014;-0.680;2023-06-22T00:21:00;6.20;;;5.50;;
57249;SDS011;43102;52.014;-0.680;2023-06-22T00:22:00;6.20;;;5.50;;
57249;SDS011;43102;52.014;-0.680;2023-06-22T00:23:00;6.20;;;5.50;;
57249;SDS011;43102;52.014;-0.680;2023-06-22T00:24:00;6.20;;;5.50;;
57249;SDS011;43102;52.014;-0.680;2023-06-22T00:25:00;6.20;;;5.50;;
57249;SDS011;43102;52.014;-0.680;2023-06-22T00:26:00;6.20;;;5.50;;
57249;SDS011;43102;52.014;-0.680;2023-06-22T00:27:00;6.20;;;5.50;;
57249;SDS011;43102;52.014;-0.680;2023-06-22T00:28:00;6.20;;;5.50;;
57249;SDS011;43102;52.014;-0.680;2023-06-22T00:29:00;6.20;;;5.50;;
57249;SDS011;43102;52.014;-0.680;2023-06-22T00:30:00;6.20;;;5.50;;
57249;SDS011;43102;52.014;-0.680;2023-06-22T00:31:00;6.20;;;5.50;;
57249;SDS011;43102;52.014;-0.680;2023-06-22T00:32:00;6.20;;;5.50;;
57249;SDS011;43102;52.014;-0.680;2023-06-22T00:33:01;6.20;;;5.50;;
57249;SDS011;43102;52.014;-0.680;2023-06-22T00:34:00;6.20;;;5.50;;
57249;SDS011;43102;52.014;-0.680;2023-06-22T00:35:00;6.20;;;5.50;;
57249;SDS011;43102;52.014;-0.680;2023-06-22T00:36:02;6.20;;;5.50;;
57249;SDS011;43102;52.014;-0.680;2023-06-22T00:37:00;6.20;;;5.50;;
57249;SDS011;43102;52.014;-0.680;2023-06-22T00:38:01;6.20;;;5.50;;
57249;SDS011;43102;52.014;-0.680;2023-06-22T00:39:00;6.20;;;5.50;;
57249;SDS011;43102;52.014;-0.680;2023-06-22T00:40:00;6.20;;;5.50;;
57249;SDS011;43102;52.014;-0.680;2023-06-22T00:41:00;6.20;;;5.50;;
57249;SDS011;43102;52.014;-0.680;2023-06-22T00:42:00;6.20;;;5.50;;
57249;SDS011;43102;52.014;-0.680;2023-06-22T00:43:00;6.20;;;5.50;;
57249;SDS011;43102;52.014;-0.680;2023-06-22T00:44:00;6.20;;;5.50;;
57249;SDS011;43102;52.014;-0.680;2023-06-22T00:45:00;6.20;;;5.50;;
57249;SDS011;43102;52.014;-0.680;2023-06-22T00:46:00;6.20;;;5.50;;
57249;SDS011;43102;52.014;-0.680;2023-06-22T00:47:00;6.20;;;5.50;;
57249;SDS011;43102;52.014;-0.680;2023-06-22T00:48:01;6.20;;;5.50;;
57249;SDS011;43102;52.014;-0.680;2023-06-22T00:49:00;6.90;;;5.60;;
57249;SDS011;43102;52.014;-0.680;2023-06-22T00:50:00;6.90;;;5.60;;
57249;SDS011;43102;52.014;-0.680;2023-06-22T00:51:01;6.90;;;5.60;;
57249;SDS011;43102;52.014;-0.680;2023-06-22T00:52:00;6.90;;;5.60;;
57249;SDS011;43102;52.014;-0.680;2023-06-22T00:53:08;6.90;;;5.60;;
57249;SDS011;43102;52.014;-0.680;2023-06-22T00:54:00;6.90;;;5.60;;
57249;SDS011;43102;52.014;-0.680;2023-06-22T00:55:02;6.90;;;5.60;;
57249;SDS011;43102;52.014;-0.680;2023-06-22T00:56:00;6.90;;;5.60;;
57249;SDS011;43102;52.014;-0.680;2023-06-22T00:57:00;6.90;;;5.60;;
57249;SDS011;43102;52.014;-0.680;2023-06-22T00:58:00;6.90;;;5.60;;
57249;SDS011;43102;52.014;-0.680;2023-06-22T00:59:03;6.90;;;5.60;;
57249;SDS011;43102;52.014;-0.680;2023-06-22T01:00:00;6.90;;;5.60;;
57249;SDS011;43102;52.014;-0.680;2023-06-22T01:01:01;6.90;;;5.60;;
57249;SDS011;43102;52.014;-0.680;2023-06-22T01:02:00;6.90;;;5.60;;
57249;SDS011;43102;52.014;-0.680;2023-06-22T01:03:02;6.90;;;5.60;;
57249;SDS011;43102;52.014;-0.680;2023-06-22T01:04:00;6.90;;;5.60;;
57249;SDS011;43102;52.014;-0.680;2023-06-22T01:05:00;6.90;;;5.60;;
57249;SDS011;43102;52.014;-0.680;2023-06-22T01:06:10;6.90;;;5.60;;
57249;SDS011;43102;52.014;-0.680;2023-06-22T01:07:09;6.90;;;5.60;;
57249;SDS011;43102;52.014;-0.680;2023-06-22T01:09:08;6.90;;;5.60;;
57249;SDS011;43102;52.014;-0.680;2023-06-22T01:10:11;6.90;;;5.60;;
57249;SDS011;43102;52.014;-0.680;2023-06-22T01:11:05;6.90;;;5.60;;
57249;SDS011;43102;52.014;-0.680;2023-06-22T01:12:02;6.90;;;5.60;;
57249;SDS011;43102;52.014;-0.680;2023-06-22T01:13:06;6.90;;;5.60;;
57249;SDS011;43102;52.014;-0.680;2023-06-22T01:14:06;6.90;;;5.60;;
57249;SDS011;43102;52.014;-0.680;2023-06-22T01:15:06;6.90;;;5.60;;
57249;SDS011;43102;52.014;-0.680;2023-06-22T01:16:13;6.90;;;5.60;;
57249;SDS011;43102;52.014;-0.680;2023-06-22T01:17:01;6.90;;;5.60;;
57249;SDS011;43102;52.014;-0.680;2023-06-22T01:18:02;6.90;;;5.60;;
57249;SDS011;43102;52.014;-0.680;2023-06-22T01:19:05;6.80;;;5.40;;
57249;SDS011;43102;52.014;-0.680;2023-06-22T01:20:04;6.80;;;5.40;;
57249;SDS011;43102;52.014;-0.680;2023-06-22T01:21:03;6.80;;;5.40;;
57249;SDS011;43102;52.014;-0.680;2023-06-22T01:22:01;6.80;;;5.40;;
57249;SDS011;43102;52.014;-0.680;2023-06-22T01:23:11;6.80;;;5.40;;
57249;SDS011;43102;52.014;-0.680;2023-06-22T01:24:15;6.80;;;5.40;;
57249;SDS011;43102;52.014;-0.680;2023-06-22T01:25:16;6.80;;;5.40;;
57249;SDS011;43102;52.014;-0.680;2023-06-22T01:26:18;6.80;;;5.40;;
57249;SDS011;43102;52.014;-0.680;2023-06-22T01:27:12;6.80;;;5.40;;
57249;SDS011;43102;52.014;-0.680;2023-06-22T01:29:01;6.80;;;5.40;;
57249;SDS011;43102;52.014;-0.680;2023-06-22T01:30:02;6.80;;;5.40;;
57249;SDS011;43102;52.014;-0.680;2023-06-22T01:31:05;6.80;;;5.40;;
57249;SDS011;43102;52.014;-0.680;2023-06-22T01:32:02;6.80;;;5.40;;
57249;SDS011;43102;52.014;-0.680;2023-06-22T01:33:02;6.80;;;5.40;;
57249;SDS011;43102;52.014;-0.680;2023-06-22T01:34:02;6.80;;;5.40;;
57249;SDS011;43102;52.014;-0.680;2023-06-22T01:35:02;6.80;;;5.40;;
57249;SDS011;43102;52.014;-0.680;2023-06-22T01:36:02;6.80;;;5.40;;
57249;SDS011;43102;52.014;-0.680;2023-06-22T01:37:01;6.80;;;5.40;;
57249;SDS011;43102;52.014;-0.680;2023-06-22T01:38:01;6.80;;;5.40;;
57249;SDS011;43102;52.014;-0.680;2023-06-22T01:39:02;6.80;;;5.40;;
57249;SDS011;43102;52.014;-0.680;2023-06-22T01:40:01;6.80;;;5.40;;
57249;SDS011;43102;52.014;-0.680;2023-06-22T01:41:01;6.80;;;5.40;;
57249;SDS011;43102;52.014;-0.680;2023-06-22T01:42:00;6.80;;;5.40;;
57249;SDS011;43102;52.014;-0.680;2023-06-22T01:43:01;6.80;;;5.40;;
57249;SDS011;43102;52.014;-0.680;2023-06-22T01:44:01;6.80;;;5.40;;
57249;SDS011;43102;52.014;-0.680;2023-06-22T01:45:01;6.80;;;5.40;;
57249;SDS011;43102;52.014;-0.680;2023-06-22T01:46:01;6.80;;;5.40;;
57249;SDS011;43102;52.014;-0.680;2023-06-22T01:47:01;6.80;;;5.40;;
57249;SDS011;43102;52.014;-0.680;2023-06-22T01:48:01;6.80;;;5.40;;
57249;SDS011;43102;52.014;-0.680;2023-06-22T01:49:02;7.50;;;5.70;;
57249;SDS011;43102;52.014;-0.680;2023-06-22T01:50:00;7.50;;;5.70;;
57249;SDS011;43102;52.014;-0.680;2023-06-22T01:51:00;7.50;;;5.70;;
57249;SDS011;43102;52.014;-0.680;2023-06-22T01:52:00;7.50;;;5.70;;
57249;SDS011;43102;52.014;-0.680;2023-06-22T01:53:00;7.50;;;5.70;;
57249;SDS011;43102;52.014;-0.680;2023-06-22T01:54:01;7.50;;;5.70;;
57249;SDS011;43102;52.014;-0.680;2023-06-22T01:55:01;7.50;;;5.70;;
57249;SDS011;43102;52.014;-0.680;2023-06-22T01:56:00;7.50;;;5.70;;
57249;SDS011;43102;52.014;-0.680;2023-06-22T01:57:00;7.50;;;5.70;;
57249;SDS011;43102;52.014;-0.680;2023-06-22T01:58:00;7.50;;;5.70;;
57249;SDS011;43102;52.014;-0.680;2023-06-22T01:59:09;7.50;;;5.70;;
57249;SDS011;43102;52.014;-0.680;2023-06-22T02:00:03;7.50;;;5.70;;
57249;SDS011;43102;52.014;-0.680;2023-06-22T02:01:09;7.50;;;5.70;;
57249;SDS011;43102;52.014;-0.680;2023-06-22T02:02:06;7.50;;;5.70;;
57249;SDS011;43102;52.014;-0.680;2023-06-22T02:03:05;7.50;;;5.70;;
57249;SDS011;43102;52.014;-0.680;2023-06-22T02:04:13;7.50;;;5.70;;
57249;SDS011;43102;52.014;-0.680;2023-06-22T02:05:07;7.50;;;5.70;;
57249;SDS011;43102;52.014;-0.680;2023-06-22T02:06:05;7.50;;;5.70;;
57249;SDS011;43102;52.014;-0.680;2023-06-22T02:07:01;7.50;;;5.70;;
57249;SDS011;43102;52.014;-0.680;2023-06-22T02:09:03;7.50;;;5.70;;
57249;SDS011;43102;52.014;-0.680;2023-06-22T02:10:02;7.50;;;5.70;;
57249;SDS011;43102;52.014;-0.680;2023-06-22T02:11:02;7.50;;;5.70;;
57249;SDS011;43102;52.014;-0.680;2023-06-22T02:12:02;7.50;;;5.70;;
57249;SDS011;43102;52.014;-0.680;2023-06-22T02:13:04;7.50;;;5.70;;
57249;SDS011;43102;52.014;-0.680;2023-06-22T02:14:00;7.50;;;5.70;;
57249;SDS011;43102;52.014;-0.680;2023-06-22T02:15:01;7.50;;;5.70;;
57249;SDS011;43102;52.014;-0.680;2023-06-22T02:16:01;7.50;;;5.70;;
57249;SDS011;43102;52.014;-0.680;2023-06-22T02:17:00;7.50;;;5.70;;
57249;SDS011;43102;52.014;-0.680;2023-06-22T02:18:01;7.50;;;5.70;;
57249;SDS011;43102;52.014;-0.680;2023-06-22T02:19:02;7.20;;;5.00;;
57249;SDS011;43102;52.014;-0.680;2023-06-22T02:20:02;7.20;;;5.00;;
57249;SDS011;43102;52.014;-0.680;2023-06-22T02:21:00;7.20;;;5.00;;
57249;SDS011;43102;52.014;-0.680;2023-06-22T02:22:00;7.20;;;5.00;;
57249;SDS011;43102;52.014;-0.680;2023-06-22T02:23:00;7.20;;;5.00;;
57249;SDS011;43102;52.014;-0.680;2023-06-22T02:24:00;7.20;;;5.00;;
57249;SDS011;43102;52.014;-0.680;2023-06-22T02:25:00;7.20;;;5.00;;
57249;SDS011;43102;52.014;-0.680;2023-06-22T02:26:02;7.20;;;5.00;;
57249;SDS011;43102;52.014;-0.680;2023-06-22T02:27:02;7.20;;;5.00;;
57249;SDS011;43102;52.014;-0.680;2023-06-22T02:28:00;7.20;;;5.00;;
57249;SDS011;43102;52.014;-0.680;2023-06-22T02:29:00;7.20;;;5.00;;
57249;SDS011;43102;52.014;-0.680;2023-06-22T02:30:00;7.20;;;5.00;;
57249;SDS011;43102;52.014;-0.680;2023-06-22T02:31:00;7.20;;;5.00;;
57249;SDS011;43102;52.014;-0.680;2023-06-22T02:32:00;7.20;;;5.00;;
57249;SDS011;43102;52.014;-0.680;2023-06-22T02:33:01;7.20;;;5.00;;
57249;SDS011;43102;52.014;-0.680;2023-06-22T02:34:00;7.20;;;5.00;;
57249;SDS011;43102;52.014;-0.680;2023-06-22T02:35:04;7.20;;;5.00;;
57249;SDS011;43102;52.014;-0.680;2023-06-22T02:36:04;7.20;;;5.00;;
57249;SDS011;43102;52.014;-0.680;2023-06-22T02:37:01;7.20;;;5.00;;
57249;SDS011;43102;52.014;-0.680;2023-06-22T02:38:02;7.20;;;5.00;;
57249;SDS011;43102;52.014;-0.680;2023-06-22T02:39:01;7.20;;;5.00;;
57249;SDS011;43102;52.014;-0.680;2023-06-22T02:40:01;7.20;;;5.00;;
57249;SDS011;43102;52.014;-0.680;2023-06-22T02:41:01;7.20;;;5.00;;
57249;SDS011;43102;52.014;-0.680;2023-06-22T02:42:00;7.20;;;5.00;;
57249;SDS011;43102;52.014;-0.680;2023-06-22T02:43:02;7.20;;;5.00;;
57249;SDS011;43102;52.014;-0.680;2023-06-22T02:44:00;7.20;;;5.00;;
57249;SDS011;43102;52.014;-0.680;2023-06-22T02:45:00;7.20;;;5.00;;
57249;SDS011;43102;52.014;-0.680;2023-06-22T02:46:00;7.20;;;5.00;;
57249;SDS011;43102;52.014;-0.680;2023-06-22T02:47:00;7.20;;;5.00;;
57249;SDS011;43102;52.014;-0.680;2023-06-22T02:48:00;7.20;;;5.00;;
57249;SDS011;43102;52.014;-0.680;2023-06-22T02:49:00;7.20;;;5.00;;
57249;SDS011;43102;52.014;-0.680;2023-06-22T02:50:01;7.50;;;5.70;;
57249;SDS011;43102;52.014;-0.680;2023-06-22T02:51:00;7.50;;;5.70;;
57249;SDS011;43102;52.014;-0.680;2023-06-22T02:52:00;7.50;;;5.70;;
57249;SDS011;43102;52.014;-0.680;2023-06-22T02:53:00;7.50;;;5.70;;
57249;SDS011;43102;52.014;-0.680;2023-06-22T02:54:00;7.50;;;5.70;;
57249;SDS011;43102;52.014;-0.680;2023-06-22T02:55:00;7.50;;;5.70;;
57249;SDS011;43102;52.014;-0.680;2023-06-22T02:56:05;7.50;;;5.70;;
57249;SDS011;43102;52.014;-0.680;2023-06-22T02:57:02;7.50;;;5.70;;
57249;SDS011;43102;52.014;-0.680;2023-06-22T02:58:04;7.50;;;5.70;;
57249;SDS011;43102;52.014;-0.680;2023-06-22T02:59:01;7.50;;;5.70;;
57249;SDS011;43102;52.014;-0.680;2023-06-22T03:00:02;7.50;;;5.70;;
57249;SDS011;43102;52.014;-0.680;2023-06-22T03:01:04;7.50;;;5.70;;
57249;SDS011;43102;52.014;-0.680;2023-06-22T03:02:00;7.50;;;5.70;;
57249;SDS011;43102;52.014;-0.680;2023-06-22T03:03:01;7.50;;;5.70;;
57249;SDS011;43102;52.014;-0.680;2023-06-22T03:04:00;7.50;;;5.70;;
57249;SDS011;43102;52.014;-0.680;2023-06-22T03:05:01;7.50;;;5.70;;
57249;SDS011;43102;52.014;-0.680;2023-06-22T03:06:00;7.50;;;5.70;;
57249;SDS011;43102;52.014;-0.680;2023-06-22T03:07:01;7.50;;;5.70;;
57249;SDS011;43102;52.014;-0.680;2023-06-22T03:08:00;7.50;;;5.70;;
57249;SDS011;43102;52.014;-0.680;2023-06-22T03:09:04;7.50;;;5.70;;
57249;SDS011;43102;52.014;-0.680;2023-06-22T03:10:00;7.50;;;5.70;;
57249;SDS011;43102;52.014;-0.680;2023-06-22T03:11:00;7.50;;;5.70;;
57249;SDS011;43102;52.014;-0.680;2023-06-22T03:12:02;7.50;;;5.70;;
57249;SDS011;43102;52.014;-0.680;2023-06-22T03:13:00;7.50;;;5.70;;
57249;SDS011;43102;52.014;-0.680;2023-06-22T03:14:01;7.50;;;5.70;;
57249;SDS011;43102;52.014;-0.680;2023-06-22T03:15:00;7.50;;;5.70;;
57249;SDS011;43102;52.014;-0.680;2023-06-22T03:16:00;7.50;;;5.70;;
57249;SDS011;43102;52.014;-0.680;2023-06-22T03:17:03;7.50;;;5.70;;
57249;SDS011;43102;52.014;-0.680;2023-06-22T03:18:00;7.50;;;5.70;;
57249;SDS011;43102;52.014;-0.680;2023-06-22T03:19:00;7.50;;;5.70;;
57249;SDS011;43102;52.014;-0.680;2023-06-22T03:20:01;7.20;;;6.00;;
57249;SDS011;43102;52.014;-0.680;2023-06-22T03:21:02;7.20;;;6.00;;
57249;SDS011;43102;52.014;-0.680;2023-06-22T03:22:00;7.20;;;6.00;;
57249;SDS011;43102;52.014;-0.680;2023-06-22T03:23:00;7.20;;;6.00;;
57249;SDS011;43102;52.014;-0.680;2023-06-22T03:24:00;7.20;;;6.00;;
57249;SDS011;43102;52.014;-0.680;2023-06-22T03:25:00;7.20;;;6.00;;
57249;SDS011;43102;52.014;-0.680;2023-06-22T03:26:01;7.20;;;6.00;;
57249;SDS011;43102;52.014;-0.680;2023-06-22T03:27:04;7.20;;;6.00;;
57249;SDS011;43102;52.014;-0.680;2023-06-22T03:28:00;7.20;;;6.00;;
57249;SDS011;43102;52.014;-0.680;2023-06-22T03:29:00;7.20;;;6.00;;
57249;SDS011;43102;52.014;-0.680;2023-06-22T03:30:00;7.20;;;6.00;;
57249;SDS011;43102;52.014;-0.680;2023-06-22T03:31:00;7.20;;;6.00;;
57249;SDS011;43102;52.014;-0.680;2023-06-22T03:32:00;7.20;;;6.00;;
57249;SDS011;43102;52.014;-0.680;2023-06-22T03:33:00;7.20;;;6.00;;
57249;SDS011;43102;52.014;-0.680;2023-06-22T03:34:00;7.20;;;6.00;;
57249;SDS011;43102;52.014;-0.680;2023-06-22T03:35:00;7.20;;;6.00;;
57249;SDS011;43102;52.014;-0.680;2023-06-22T03:36:00;7.20;;;6.00;;
57249;SDS011;43102;52.014;-0.680;2023-06-22T03:37:01;7.20;;;6.00;;
57249;SDS011;43102;52.014;-0.680;2023-06-22T03:38:00;7.20;;;6.00;;
57249;SDS011;43102;52.014;-0.680;2023-06-22T03:39:00;7.20;;;6.00;;
57249;SDS011;43102;52.014;-0.680;2023-06-22T03:40:00;7.20;;;6.00;;
57249;SDS011;43102;52.014;-0.680;2023-06-22T03:41:00;7.20;;;6.00;;
57249;SDS011;43102;52.014;-0.680;2023-06-22T03:42:00;7.20;;;6.00;;
57249;SDS011;43102;52.014;-0.680;2023-06-22T03:43:00;7.20;;;6.00;;
57249;SDS011;43102;52.014;-0.680;2023-06-22T03:44:00;7.20;;;6.00;;
57249;SDS011;43102;52.014;-0.680;2023-06-22T03:45:01;7.20;;;6.00;;
57249;SDS011;43102;52.014;-0.680;2023-06-22T03:46:00;7.20;;;6.00;;
57249;SDS011;43102;52.014;-0.680;2023-06-22T03:47:02;7.20;;;6.00;;
57249;SDS011;43102;52.014;-0.680;2023-06-22T03:48:01;7.20;;;6.00;;
57249;SDS011;43102;52.014;-0.680;2023-06-22T03:49:03;7.20;;;6.00;;
57249;SDS011;43102;52.014;-0.680;2023-06-22T03:50:00;8.00;;;6.20;;
57249;SDS011;43102;52.014;-0.680;2023-06-22T03:51:01;8.00;;;6.20;;
57249;SDS011;43102;52.014;-0.680;2023-06-22T03:52:02;8.00;;;6.20;;
57249;SDS011;43102;52.014;-0.680;2023-06-22T03:53:00;8.00;;;6.20;;
57249;SDS011;43102;52.014;-0.680;2023-06-22T03:54:00;8.00;;;6.20;;
57249;SDS011;43102;52.014;-0.680;2023-06-22T03:55:00;8.00;;;6.20;;
57249;SDS011;43102;52.014;-0.680;2023-06-22T03:56:00;8.00;;;6.20;;
57249;SDS011;43102;52.014;-0.680;2023-06-22T03:57:00;8.00;;;6.20;;
57249;SDS011;43102;52.014;-0.680;2023-06-22T03:58:05;8.00;;;6.20;;
57249;SDS011;43102;52.014;-0.680;2023-06-22T03:59:00;8.00;;;6.20;;
57249;SDS011;43102;52.014;-0.680;2023-06-22T04:00:01;8.00;;;6.20;;
57249;SDS011;43102;52.014;-0.680;2023-06-22T04:01:00;8.00;;;6.20;;
57249;SDS011;43102;52.014;-0.680;2023-06-22T04:02:00;8.00;;;6.20;;
57249;SDS011;43102;52.014;-0.680;2023-06-22T04:03:01;8.00;;;6.20;;
57249;SDS011;43102;52.014;-0.680;2023-06-22T04:04:00;8.00;;;6.20;;
57249;SDS011;43102;52.014;-0.680;2023-06-22T04:05:05;8.00;;;6.20;;
57249;SDS011;43102;52.014;-0.680;2023-06-22T04:06:00;8.00;;;6.20;;
57249;SDS011;43102;52.014;-0.680;2023-06-22T04:07:00;8.00;;;6.20;;
57249;SDS011;43102;52.014;-0.680;2023-06-22T04:08:00;8.00;;;6.20;;
57249;SDS011;43102;52.014;-0.680;2023-06-22T04:09:01;8.00;;;6.20;;
57249;SDS011;43102;52.014;-0.680;2023-06-22T04:10:00;8.00;;;6.20;;
57249;SDS011;43102;52.014;-0.680;2023-06-22T04:11:00;8.00;;;6.20;;
57249;SDS011;43102;52.014;-0.680;2023-06-22T04:12:01;8.00;;;6.20;;
57249;SDS011;43102;52.014;-0.680;2023-06-22T04:13:00;8.00;;;6.20;;
57249;SDS011;43102;52.014;-0.680;2023-06-22T04:14:00;8.00;;;6.20;;
57249;SDS011;43102;52.014;-0.680;2023-06-22T04:15:00;8.00;;;6.20;;
57249;SDS011;43102;52.014;-0.680;2023-06-22T04:16:01;8.00;;;6.20;;
57249;SDS011;43102;52.014;-0.680;2023-06-22T04:17:01;8.00;;;6.20;;
57249;SDS011;43102;52.014;-0.680;2023-06-22T04:18:00;8.00;;;6.20;;
57249;SDS011;43102;52.014;-0.680;2023-06-22T04:19:00;8.00;;;6.20;;
57249;SDS011;43102;52.014;-0.680;2023-06-22T04:20:00;6.80;;;5.40;;
57249;SDS011;43102;52.014;-0.680;2023-06-22T04:21:01;6.80;;;5.40;;
57249;SDS011;43102;52.014;-0.680;2023-06-22T04:22:00;6.80;;;5.40;;
57249;SDS011;43102;52.014;-0.680;2023-06-22T04:23:00;6.80;;;5.40;;
57249;SDS011;43102;52.014;-0.680;2023-06-22T04:24:00;6.80;;;5.40;;
57249;SDS011;43102;52.014;-0.680;2023-06-22T04:25:00;6.80;;;5.40;;
57249;SDS011;43102;52.014;-0.680;2023-06-22T04:26:00;6.80;;;5.40;;
57249;SDS011;43102;52.014;-0.680;2023-06-22T04:27:02;6.80;;;5.40;;
57249;SDS011;43102;52.014;-0.680;2023-06-22T04:28:03;6.80;;;5.40;;
57249;SDS011;43102;52.014;-0.680;2023-06-22T04:29:05;6.80;;;5.40;;
57249;SDS011;43102;52.014;-0.680;2023-06-22T04:30:01;6.80;;;5.40;;
57249;SDS011;43102;52.014;-0.680;2023-06-22T04:31:02;6.80;;;5.40;;
57249;SDS011;43102;52.014;-0.680;2023-06-22T04:32:05;6.80;;;5.40;;
57249;SDS011;43102;52.014;-0.680;2023-06-22T04:33:00;6.80;;;5.40;;
57249;SDS011;43102;52.014;-0.680;2023-06-22T04:34:06;6.80;;;5.40;;
57249;SDS011;43102;52.014;-0.680;2023-06-22T04:35:00;6.80;;;5.40;;
57249;SDS011;43102;52.014;-0.680;2023-06-22T04:36:01;6.80;;;5.40;;
57249;SDS011;43102;52.014;-0.680;2023-06-22T04:37:00;6.80;;;5.40;;
57249;SDS011;43102;52.014;-0.680;2023-06-22T04:38:00;6.80;;;5.40;;
57249;SDS011;43102;52.014;-0.680;2023-06-22T04:39:00;6.80;;;5.40;;
57249;SDS011;43102;52.014;-0.680;2023-06-22T04:40:00;6.80;;;5.40;;
57249;SDS011;43102;52.014;-0.680;2023-06-22T04:41:03;6.80;;;5.40;;
57249;SDS011;43102;52.014;-0.680;2023-06-22T04:42:00;6.80;;;5.40;;
57249;SDS011;43102;52.014;-0.680;2023-06-22T04:43:02;6.80;;;5.40;;
57249;SDS011;43102;52.014;-0.680;2023-06-22T04:44:00;6.80;;;5.40;;
57249;SDS011;43102;52.014;-0.680;2023-06-22T04:45:02;6.80;;;5.40;;
57249;SDS011;43102;52.014;-0.680;2023-06-22T04:46:03;6.80;;;5.40;;
57249;SDS011;43102;52.014;-0.680;2023-06-22T04:47:03;6.80;;;5.40;;
57249;SDS011;43102;52.014;-0.680;2023-06-22T04:48:00;6.80;;;5.40;;
57249;SDS011;43102;52.014;-0.680;2023-06-22T04:49:00;6.80;;;5.40;;
57249;SDS011;43102;52.014;-0.680;2023-06-22T04:50:05;7.30;;;6.10;;
57249;SDS011;43102;52.014;-0.680;2023-06-22T04:51:03;7.30;;;6.10;;
57249;SDS011;43102;52.014;-0.680;2023-06-22T04:52:02;7.30;;;6.10;;
57249;SDS011;43102;52.014;-0.680;2023-06-22T04:53:05;7.30;;;6.10;;
57249;SDS011;43102;52.014;-0.680;2023-06-22T04:54:00;7.30;;;6.10;;
57249;SDS011;43102;52.014;-0.680;2023-06-22T04:55:00;7.30;;;6.10;;
57249;SDS011;43102;52.014;-0.680;2023-06-22T04:56:00;7.30;;;6.10;;
57249;SDS011;43102;52.014;-0.680;2023-06-22T04:57:01;7.30;;;6.10;;
57249;SDS011;43102;52.014;-0.680;2023-06-22T04:58:04;7.30;;;6.10;;
57249;SDS011;43102;52.014;-0.680;2023-06-22T04:59:01;7.30;;;6.10;;
57249;SDS011;43102;52.014;-0.680;2023-06-22T05:00:11;7.30;;;6.10;;
57249;SDS011;43102;52.014;-0.680;2023-06-22T05:01:00;7.30;;;6.10;;
57249;SDS011;43102;52.014;-0.680;2023-06-22T05:02:02;7.30;;;6.10;;
57249;SDS011;43102;52.014;-0.680;2023-06-22T05:03:11;7.30;;;6.10;;
57249;SDS011;43102;52.014;-0.680;2023-06-22T05:04:02;7.30;;;6.10;;
57249;SDS011;43102;52.014;-0.680;2023-06-22T05:05:07;7.30;;;6.10;;
57249;SDS011;43102;52.014;-0.680;2023-06-22T05:06:00;7.30;;;6.10;;
57249;SDS011;43102;52.014;-0.680;2023-06-22T05:07:01;7.30;;;6.10;;
57249;SDS011;43102;52.014;-0.680;2023-06-22T05:08:01;7.30;;;6.10;;
57249;SDS011;43102;52.014;-0.680;2023-06-22T05:09:00;7.30;;;6.10;;
57249;SDS011;43102;52.014;-0.680;2023-06-22T05:10:01;7.30;;;6.10;;
57249;SDS011;43102;52.014;-0.680;2023-06-22T05:11:06;7.30;;;6.10;;
57249;SDS011;43102;52.014;-0.680;2023-06-22T05:12:02;7.30;;;6.10;;
57249;SDS011;43102;52.014;-0.680;2023-06-22T05:13:00;7.30;;;6.10;;
57249;SDS011;43102;52.014;-0.680;2023-06-22T05:14:00;7.30;;;6.10;;
57249;SDS011;43102;52.014;-0.680;2023-06-22T05:15:01;7.30;;;6.10;;
57249;SDS011;43102;52.014;-0.680;2023-06-22T05:16:02;7.30;;;6.10;;
57249;SDS011;43102;52.014;-0.680;2023-06-22T05:17:03;7.30;;;6.10;;
57249;SDS011;43102;52.014;-0.680;2023-06-22T05:18:05;7.30;;;6.10;;
57249;SDS011;43102;52.014;-0.680;2023-06-22T05:19:03;7.30;;;6.10;;
57249;SDS011;43102;52.014;-0.680;2023-06-22T05:20:00;9.20;;;6.90;;
57249;SDS011;43102;52.014;-0.680;2023-06-22T05:21:01;9.20;;;6.90;;
57249;SDS011;43102;52.014;-0.680;2023-06-22T05:22:00;9.20;;;6.90;;
57249;SDS011;43102;52.014;-0.680;2023-06-22T05:23:00;9.20;;;6.90;;
57249;SDS011;43102;52.014;-0.680;2023-06-22T05:24:02;9.20;;;6.90;;
57249;SDS011;43102;52.014;-0.680;2023-06-22T05:25:00;9.20;;;6.90;;
57249;SDS011;43102;52.014;-0.680;2023-06-22T05:26:00;9.20;;;6.90;;
57249;SDS011;43102;52.014;-0.680;2023-06-22T05:27:00;9.20;;;6.90;;
57249;SDS011;43102;52.014;-0.680;2023-06-22T05:28:00;9.20;;;6.90;;
57249;SDS011;43102;52.014;-0.680;2023-06-22T05:29:01;9.20;;;6.90;;
57249;SDS011;43102;52.014;-0.680;2023-06-22T05:30:00;9.20;;;6.90;;
57249;SDS011;43102;52.014;-0.680;2023-06-22T05:31:00;9.20;;;6.90;;
57249;SDS011;43102;52.014;-0.680;2023-06-22T05:32:01;9.20;;;6.90;;
57249;SDS011;43102;52.014;-0.680;2023-06-22T05:33:00;9.20;;;6.90;;
57249;SDS011;43102;52.014;-0.680;2023-06-22T05:34:00;9.20;;;6.90;;
57249;SDS011;43102;52.014;-0.680;2023-06-22T05:35:00;9.20;;;6.90;;
57249;SDS011;43102;52.014;-0.680;2023-06-22T05:36:00;9.20;;;6.90;;
57249;SDS011;43102;52.014;-0.680;2023-06-22T05:37:01;9.20;;;6.90;;
57249;SDS011;43102;52.014;-0.680;2023-06-22T05:38:00;9.20;;;6.90;;
57249;SDS011;43102;52.014;-0.680;2023-06-22T05:39:11;9.20;;;6.90;;
57249;SDS011;43102;52.014;-0.680;2023-06-22T05:40:00;9.20;;;6.90;;
57249;SDS011;43102;52.014;-0.680;2023-06-22T05:41:00;9.20;;;6.90;;
57249;SDS011;43102;52.014;-0.680;2023-06-22T05:42:00;9.20;;;6.90;;
57249;SDS011;43102;52.014;-0.680;2023-06-22T05:43:01;9.20;;;6.90;;
57249;SDS011;43102;52.014;-0.680;2023-06-22T05:44:00;9.20;;;6.90;;
57249;SDS011;43102;52.014;-0.680;2023-06-22T05:45:00;9.20;;;6.90;;
57249;SDS011;43102;52.014;-0.680;2023-06-22T05:46:01;9.20;;;6.90;;
57249;SDS011;43102;52.014;-0.680;2023-06-22T05:47:01;9.20;;;6.90;;
57249;SDS011;43102;52.014;-0.680;2023-06-22T05:48:01;9.20;;;6.90;;
57249;SDS011;43102;52.014;-0.680;2023-06-22T05:49:00;9.20;;;6.90;;
57249;SDS011;43102;52.014;-0.680;2023-06-22T05:50:00;8.50;;;6.70;;
57249;SDS011;43102;52.014;-0.680;2023-06-22T05:51:00;8.50;;;6.70;;
57249;SDS011;43102;52.014;-0.680;2023-06-22T05:52:00;8.50;;;6.70;;
57249;SDS011;43102;52.014;-0.680;2023-06-22T05:53:00;8.50;;;6.70;;
57249;SDS011;43102;52.014;-0.680;2023-06-22T05:54:00;8.50;;;6.70;;
57249;SDS011;43102;52.014;-0.680;2023-06-22T05:55:02;8.50;;;6.70;;
57249;SDS011;43102;52.014;-0.680;2023-06-22T05:56:00;8.50;;;6.70;;
57249;SDS011;43102;52.014;-0.680;2023-06-22T05:57:00;8.50;;;6.70;;
57249;SDS011;43102;52.014;-0.680;2023-06-22T05:58:01;8.50;;;6.70;;